Terminal Aerodrome Forecast
Issued by NWS

Home | Current Version | Previous Version | Text Only | Print | Product List | Glossary Off
Versions: 1 2 3 4 5 6 7 8 9 10 11 12 13 14 15 16 17 18 19 20 21 22 23 24 25 26 27 28 29 30 31 32 33 34 35 36 37 38 39 40 41 42 43 44 45 46 47 48 49 50

000
FTUS43 KLOT 270500
TAFGYY
TAF
KGYY 270527Z 2706/2806 00000KT 3SM BR SCT015 SCT150
     FM270800 00000KT 2SM BR BCFG SCT015
      TEMPO 2709/2712 3/4SM BR BCFG
     FM271330 26009KT P6SM SCT100
     FM271600 28011G16KT P6SM BKN045
     FM271800 29015G26KT P6SM VCSH BKN040 PROB30 2718/2722 5SM -SHRA
     FM280200 32012G18KT P6SM BKN035=

USA.gov is the U.S. government's official web portal to all federal, state and local government web resources and services.